Time;durP1;ratioP1;P1;durP2;ratioP2;P2;SDS_P1;SDS_P2;PMS_P1;PMS_P2;Temp;Humidity;BMP_temperature;BMP_pressure;BME280_temperature;BME280_humidity;BME280_pressure;Samples;Min_cycle;Max_cycle;Signal;HPM_P1;HPM_P2
2023/05/07 00:00:59;;;;;;;;;0.00;0.00;;;;;19.01;68.13;100906.56;2063856;28;46250;-65
2023/05/07 00:01:59;;;;;;;;;1.00;1.00;;;;;19.02;68.34;100911.00;2063273;28;46881;-64
2023/05/07 00:03:01;;;;;;;;;0.67;0.00;;;;;19.03;68.45;100903.78;2063531;28;46543;-63
2023/05/07 00:04:02;;;;;;;;;0.00;0.00;;;;;19.03;68.13;100904.66;2063963;28;46391;-65
2023/05/07 00:05:03;;;;;;;;;0.00;0.00;;;;;19.03;68.15;100907.34;2064062;28;46622;-64
2023/05/07 00:06:03;;;;;;;;;0.75;0.75;;;;;19.03;68.39;100907.34;2063978;28;46456;-64
2023/05/07 00:07:04;;;;;;;;;0.67;0.00;;;;;19.04;68.39;100905.53;2064214;28;46284;-65
2023/05/07 00:08:04;;;;;;;;;0.00;0.00;;;;;19.01;68.51;100898.50;2063940;28;45827;-64
2023/05/07 00:09:06;;;;;;;;;0.00;0.00;;;;;19.01;68.26;100905.69;2064300;28;46384;-64
2023/05/07 00:10:07;;;;;;;;;0.00;0.00;;;;;18.99;68.26;100903.09;2064140;28;45139;-64
2023/05/07 00:11:07;;;;;;;;;1.50;1.50;;;;;18.98;68.47;100905.88;2064099;28;46267;-63
2023/05/07 00:12:08;;;;;;;;;0.00;0.00;;;;;18.98;68.67;100900.50;2063745;28;46789;-65
2023/05/07 00:13:08;;;;;;;;;0.00;0.00;;;;;18.98;68.39;100898.69;2064018;28;46638;-64
2023/05/07 00:14:08;;;;;;;;;0.00;0.00;;;;;18.97;68.09;100896.06;2065949;28;46069;-65
2023/05/07 00:15:09;;;;;;;;;0.00;0.00;;;;;18.97;68.75;100898.75;2071426;28;46364;-64
2023/05/07 00:16:09;;;;;;;;;0.00;0.00;;;;;18.97;68.38;100901.44;2071844;28;46760;-64
2023/05/07 00:17:09;;;;;;;;;0.00;0.00;;;;;18.96;68.49;100894.34;2071841;28;46529;-63
2023/05/07 00:18:10;;;;;;;;;0.33;0.33;;;;;18.96;68.64;100888.97;2072234;28;46736;-61
2023/05/07 00:19:10;;;;;;;;;0.33;0.33;;;;;18.96;68.59;100888.97;2072059;28;47010;-63
2023/05/07 00:20:11;;;;;;;;;2.00;2.00;;;;;18.95;68.56;100898.84;2071388;28;46542;-64
2023/05/07 00:21:11;;;;;;;;;0.00;0.00;;;;;18.94;68.39;100896.25;2071136;28;45841;-64
2023/05/07 00:22:12;;;;;;;;;0.00;0.00;;;;;18.92;68.77;100890.91;2072274;28;46383;-63
2023/05/07 00:23:12;;;;;;;;;1.67;1.67;;;;;18.92;68.69;100890.91;2072059;28;46329;-64
2023/05/07 00:24:12;;;;;;;;;0.00;0.00;;;;;18.91;69.09;100893.69;2072023;28;46283;-64
2023/05/07 00:25:13;;;;;;;;;1.00;1.00;;;;;18.90;69.37;100902.72;2071566;28;46286;-64
2023/05/07 00:26:13;;;;;;;;;2.00;2.00;;;;;18.89;68.92;100903.66;2072070;28;46730;-63
2023/05/07 00:27:13;;;;;;;;;1.00;1.00;;;;;18.89;69.29;100903.66;2071313;28;46526;-63
2023/05/07 00:28:14;;;;;;;;;1.00;1.00;;;;;18.90;69.13;100898.22;2071654;28;46261;-64
2023/05/07 00:29:14;;;;;;;;;0.00;0.00;;;;;18.90;68.94;100900.03;2071805;28;45571;-62
2023/05/07 00:30:14;;;;;;;;;0.00;0.00;;;;;18.89;68.64;100900.97;2072273;28;45681;-64
2023/05/07 00:31:15;;;;;;;;;0.00;0.00;;;;;18.89;68.27;100896.47;2071911;28;46925;-62
2023/05/07 00:32:15;;;;;;;;;0.67;0.67;;;;;18.89;68.62;100896.47;2071724;28;46409;-62
2023/05/07 00:33:16;;;;;;;;;0.33;0.33;;;;;18.88;68.60;100900.13;2072049;28;46358;-64
2023/05/07 00:34:16;;;;;;;;;1.33;0.00;;;;;18.89;68.35;100901.84;2072083;28;46603;-64
2023/05/07 00:35:17;;;;;;;;;2.00;2.00;;;;;18.89;68.92;100904.53;2071818;28;45729;-64
2023/05/07 00:36:17;;;;;;;;;0.00;0.00;;;;;18.89;69.00;100900.97;2071171;28;46479;-62
2023/05/07 00:37:17;;;;;;;;;1.33;0.00;;;;;18.89;69.08;100899.16;2071408;28;45692;-63
2023/05/07 00:38:17;;;;;;;;;0.33;0.33;;;;;18.89;68.85;100900.97;2072603;28;46699;-64
2023/05/07 00:39:18;;;;;;;;;2.33;0.33;;;;;18.89;68.58;100901.84;2072055;28;46823;-62
2023/05/07 00:40:18;;;;;;;;;0.33;0.33;;;;;18.89;68.64;100895.59;2071789;28;46230;-63
2023/05/07 00:41:19;;;;;;;;;1.00;1.00;;;;;18.88;68.32;100908.19;2072021;28;46236;-63
2023/05/07 00:42:19;;;;;;;;;0.67;0.67;;;;;18.88;68.57;100908.19;2072113;28;45982;-62
2023/05/07 00:43:19;;;;;;;;;0.00;0.00;;;;;18.87;69.05;100905.56;2072260;28;45838;-63
2023/05/07 00:44:20;;;;;;;;;0.00;0.00;;;;;18.87;68.83;100910.94;2071609;28;46486;-64
2023/05/07 00:45:20;;;;;;;;;0.00;0.00;;;;;18.87;69.02;100910.94;2072023;28;47144;-63
2023/05/07 00:46:21;;;;;;;;;0.67;0.00;;;;;18.85;68.76;100905.66;2072006;28;46239;-63
2023/05/07 00:47:21;;;;;;;;;0.00;0.00;;;;;18.84;68.74;100906.63;2071900;28;45866;-65
2023/05/07 00:48:24;;;;;;;;;0.00;0.00;;;;;18.84;68.41;100901.25;2071860;28;46926;-64
2023/05/07 00:49:51;;;;;;;;;0.00;0.00;;;;;18.85;68.55;100902.09;2071963;28;46662;-64
2023/05/07 00:50:52;;;;;;;;;1.00;1.00;;;;;18.87;69.00;100902.88;2071752;28;46808;-63
2023/05/07 00:51:52;;;;;;;;;1.00;1.00;;;;;18.87;68.99;100902.88;2071398;28;45688;-64
2023/05/07 00:52:53;;;;;;;;;1.67;1.67;;;;;18.87;69.13;100897.50;2071246;28;46644;-64
2023/05/07 00:53:53;;;;;;;;;0.00;0.00;;;;;18.87;68.94;100908.25;2071654;28;46446;-64
2023/05/07 00:54:54;;;;;;;;;0.00;0.00;;;;;18.86;68.84;100898.47;2071511;28;46625;-64
2023/05/07 00:55:55;;;;;;;;;0.00;0.00;;;;;18.86;68.86;100896.63;2069413;28;46504;-63
2023/05/07 00:56:56;;;;;;;;;0.00;0.00;;;;;18.85;68.90;100885.97;2071816;28;45998;-63
2023/05/07 00:57:56;;;;;;;;;0.67;0.33;;;;;18.84;69.06;100901.25;2071655;28;46144;-64
2023/05/07 00:58:56;;;;;;;;;0.00;0.00;;;;;18.85;68.66;100899.41;2071720;28;46364;-64
2023/05/07 00:59:57;;;;;;;;;2.00;0.33;;;;;18.84;68.74;100895.84;2071788;28;45726;-62
2023/05/07 01:00:57;;;;;;;;;0.00;0.00;;;;;18.87;68.17;100897.50;2071877;28;45564;-63
2023/05/07 01:01:59;;;;;;;;;0.67;0.00;;;;;18.86;68.66;100896.63;2076487;28;45895;-63
2023/05/07 01:02:59;;;;;;;;;0.00;0.00;;;;;18.86;68.51;100893.94;2075714;28;46899;-62
2023/05/07 01:04:00;;;;;;;;;0.00;0.00;;;;;18.86;68.14;100899.34;2071870;28;46239;-64
2023/05/07 01:05:01;;;;;;;;;0.00;0.00;;;;;18.86;68.28;100893.09;2072136;28;47112;-62
2023/05/07 01:06:03;;;;;;;;;0.00;0.00;;;;;18.85;68.36;100888.66;2064468;28;46439;-62
2023/05/07 01:07:04;;;;;;;;;0.00;0.00;;;;;18.85;68.00;100894.03;2072474;28;46759;-64
2023/05/07 01:08:05;;;;;;;;;0.00;0.00;;;;;18.85;68.25;100896.72;2073425;28;46753;-63
2023/05/07 01:09:05;;;;;;;;;0.00;0.00;;;;;18.84;68.40;100895.84;2073468;28;46544;-64
2023/05/07 01:10:07;;;;;;;;;0.67;0.67;;;;;18.83;68.47;100888.75;2080451;28;46527;-64
2023/05/07 01:11:08;;;;;;;;;0.00;0.00;;;;;18.80;68.06;100888.88;2073286;28;46648;-65
2023/05/07 01:12:09;;;;;;;;;0.00;0.00;;;;;18.78;67.99;100893.47;2073384;28;46365;-63
2023/05/07 01:13:13;;;;;;;;;0.00;0.00;;;;;18.76;68.41;100884.63;2073176;28;45679;-63
2023/05/07 01:14:13;;;;;;;;;0.25;0.00;;;;;18.75;68.39;100888.28;2073151;28;46936;-62
2023/05/07 01:15:14;;;;;;;;;0.00;0.00;;;;;18.74;68.47;100890.09;2064330;28;46139;-64
2023/05/07 01:16:15;;;;;;;;;0.00;0.00;;;;;18.75;68.29;100893.66;2064767;28;46666;-63
2023/05/07 01:17:16;;;;;;;;;0.33;0.00;;;;;18.74;68.75;100889.22;2073664;28;47299;-63
2023/05/07 01:18:16;;;;;;;;;0.25;0.00;;;;;18.73;68.67;100891.03;2073029;28;46371;-63
2023/05/07 01:19:18;;;;;;;;;0.00;0.00;;;;;18.72;68.67;100878.56;2072539;28;47014;-63
2023/05/07 01:20:19;;;;;;;;;0.00;0.00;;;;;18.72;68.37;100885.75;2072839;28;46509;-65
2023/05/07 01:21:26;;;;;;;;;0.00;0.00;;;;;18.71;68.19;100873.25;2072632;28;46714;-63
2023/05/07 01:22:33;;;;;;;;;0.00;0.00;;;;;18.70;68.50;100877.78;2080957;28;46346;-63
2023/05/07 01:23:35;;;;;;;;;0.00;0.00;;;;;18.72;68.37;100878.56;2080893;28;46078;-64
2023/05/07 01:24:37;;;;;;;;;0.00;0.00;;;;;18.72;68.30;100875.00;2081009;28;46714;-65
2023/05/07 01:25:37;;;;;;;;;1.00;0.00;;;;;18.70;68.62;100875.09;2072892;28;47137;-64
2023/05/07 01:26:38;;;;;;;;;0.00;0.00;;;;;18.71;68.27;100873.25;2073045;28;46397;-65
2023/05/07 01:27:39;;;;;;;;;0.00;0.00;;;;;18.70;68.40;100858.94;2073206;28;46530;-64
2023/05/07 01:28:39;;;;;;;;;0.00;0.00;;;;;18.71;68.76;100868.75;2073387;28;46536;-65
2023/05/07 01:29:40;;;;;;;;;0.00;0.00;;;;;18.71;68.50;100871.44;2073300;28;46322;-65
2023/05/07 01:30:46;;;;;;;;;0.67;0.00;;;;;18.70;68.88;100868.84;2072902;28;46185;-65
2023/05/07 01:31:47;;;;;;;;;0.00;0.00;;;;;18.70;69.12;100872.41;2073291;28;46774;-64
2023/05/07 01:32:52;;;;;;;;;0.00;0.00;;;;;18.70;69.12;100874.22;2072990;28;46538;-63
2023/05/07 01:33:53;;;;;;;;;0.00;0.00;;;;;18.69;69.17;100870.66;2073079;28;46487;-64
2023/05/07 01:34:55;;;;;;;;;0.00;0.00;;;;;18.69;68.95;100862.59;2073317;28;46774;-63
2023/05/07 01:35:56;;;;;;;;;0.00;0.00;;;;;18.70;68.89;100860.78;2072956;28;46922;-65
2023/05/07 01:36:59;;;;;;;;;0.00;0.00;;;;;18.71;69.32;100867.88;2073446;28;46084;-63
2023/05/07 01:38:01;;;;;;;;;0.00;0.00;;;;;18.70;69.21;100868.84;2072464;28;46304;-63
2023/05/07 01:39:02;;;;;;;;;0.25;0.00;;;;;18.70;69.60;100868.84;2073164;28;46903;-64
2023/05/07 01:40:03;;;;;;;;;0.00;0.00;;;;;18.71;69.16;100865.19;2072505;28;46527;-63
2023/05/07 01:41:04;;;;;;;;;0.00;0.00;;;;;18.71;69.32;100873.25;2071984;28;46666;-64
2023/05/07 01:42:04;;;;;;;;;0.00;0.00;;;;;18.70;69.44;100869.72;2072987;28;46845;-64
2023/05/07 01:43:05;;;;;;;;;0.67;0.67;;;;;18.71;68.98;100866.06;2072587;28;46159;-64
2023/05/07 01:44:05;;;;;;;;;0.00;0.00;;;;;18.69;69.06;100862.59;2071757;28;46577;-63
2023/05/07 01:45:06;;;;;;;;;1.00;1.00;;;;;18.68;68.83;100865.38;2073504;28;46494;-65
2023/05/07 01:46:09;;;;;;;;;0.67;0.67;;;;;18.68;69.25;100865.38;2072953;28;46689;-65
2023/05/07 01:47:10;;;;;;;;;0.00;0.00;;;;;18.67;69.35;100863.59;2073015;28;46813;-64
2023/05/07 01:48:13;;;;;;;;;0.00;0.00;;;;;18.67;69.25;100858.22;2072850;28;46362;-64
2023/05/07 01:49:15;;;;;;;;;0.25;0.25;;;;;18.69;69.26;100861.72;2073108;28;46487;-64
2023/05/07 01:50:18;;;;;;;;;0.25;0.25;;;;;18.69;69.36;100864.41;2072842;28;46990;-64
2023/05/07 01:51:20;;;;;;;;;0.00;0.00;;;;;18.69;69.06;100865.28;2072695;28;46554;-65
2023/05/07 01:52:20;;;;;;;;;0.00;0.00;;;;;18.69;68.82;100862.59;2072537;28;46948;-65
2023/05/07 01:53:21;;;;;;;;;0.00;0.00;;;;;18.70;69.21;100856.25;2072825;28;46513;-63
2023/05/07 01:54:27;;;;;;;;;0.00;0.00;;;;;18.71;69.30;100863.38;2072704;28;46034;-62
2023/05/07 01:55:27;;;;;;;;;0.50;0.00;;;;;18.72;68.93;100869.63;2070171;28;46506;-63
2023/05/07 01:56:28;;;;;;;;;0.00;0.00;;;;;18.73;69.08;100866.84;2072407;28;46250;-63
2023/05/07 01:57:28;;;;;;;;;0.00;0.00;;;;;18.74;69.05;100873.97;2073397;28;46279;-63
2023/05/07 01:58:28;;;;;;;;;1.33;1.33;;;;;18.74;69.00;100871.28;2072665;28;46558;-61
2023/05/07 01:59:29;;;;;;;;;0.00;0.00;;;;;18.75;69.09;100864.94;2073162;28;46887;-63
2023/05/07 02:00:29;;;;;;;;;0.00;0.00;;;;;18.77;69.18;100867.53;2073203;28;47072;-63
2023/05/07 02:01:29;;;;;;;;;0.00;0.00;;;;;18.79;69.38;100861.13;2072770;28;46232;-61
2023/05/07 02:02:30;;;;;;;;;0.00;0.00;;;;;18.79;69.73;100869.19;2063823;28;44970;-65
2023/05/07 02:03:30;;;;;;;;;1.33;0.67;;;;;18.80;69.38;100870.06;2064328;28;46621;-64
2023/05/07 02:04:30;;;;;;;;;1.00;1.00;;;;;18.80;70.00;100873.66;2063519;28;46768;-62
2023/05/07 02:05:31;;;;;;;;;1.00;0.00;;;;;18.81;69.56;100863.75;2063660;28;46589;-63
2023/05/07 02:06:31;;;;;;;;;0.33;0.33;;;;;18.81;69.82;100864.63;2063760;28;46378;-63
2023/05/07 02:07:31;;;;;;;;;0.00;0.00;;;;;18.81;69.95;100866.44;2063663;28;46880;-62
2023/05/07 02:08:32;;;;;;;;;0.00;0.00;;;;;18.81;69.87;100863.75;2063997;28;46216;-64
2023/05/07 02:09:32;;;;;;;;;0.00;0.00;;;;;18.80;69.46;100873.66;2055409;28;46733;-63
2023/05/07 02:10:33;;;;;;;;;0.00;0.00;;;;;18.79;69.58;100877.25;2055613;28;46752;-63
2023/05/07 02:11:33;;;;;;;;;0.67;0.67;;;;;18.78;69.32;100880.91;2069327;28;46683;-63
2023/05/07 02:12:33;;;;;;;;;0.00;0.00;;;;;18.76;69.97;100879.25;2070906;28;46269;-64
2023/05/07 02:13:36;;;;;;;;;1.00;0.00;;;;;18.74;69.55;100882.03;2063564;28;46057;-64
2023/05/07 02:14:37;;;;;;;;;1.00;1.00;;;;;18.72;69.71;100875.88;2063520;28;46774;-63
2023/05/07 02:15:37;;;;;;;;;0.67;0.67;;;;;18.72;70.10;100867.81;2063220;28;46629;-62
2023/05/07 02:16:37;;;;;;;;;1.67;1.67;;;;;18.71;70.10;100871.44;2071722;28;46784;-63
2023/05/07 02:18:02;;;;;;;;;1.33;1.33;;;;;18.70;69.87;100877.78;2071641;28;46672;-63
2023/05/07 02:19:02;;;;;;;;;0.00;0.00;;;;;18.70;69.83;100879.59;2063889;28;45848;-63
2023/05/07 02:20:03;;;;;;;;;0.00;0.00;;;;;18.69;70.06;100878.72;2063790;28;46668;-63
2023/05/07 02:21:04;;;;;;;;;1.00;1.00;;;;;18.70;69.98;100883.16;2055412;28;47040;-63
2023/05/07 02:22:04;;;;;;;;;0.33;0.33;;;;;18.70;69.84;100875.09;2055708;28;46725;-63
2023/05/07 02:23:04;;;;;;;;;0.00;0.00;;;;;18.71;69.70;100878.63;2055497;28;46277;-62
2023/05/07 02:24:05;;;;;;;;;1.00;1.00;;;;;18.71;69.71;100878.63;2063221;28;46048;-61
2023/05/07 02:25:05;;;;;;;;;1.67;1.00;;;;;18.72;69.30;100877.69;2063799;28;46317;-64
2023/05/07 02:26:06;;;;;;;;;0.67;0.67;;;;;18.73;69.80;100874.03;2055331;28;46467;-62
2023/05/07 02:27:06;;;;;;;;;0.33;0.33;;;;;18.73;69.59;100877.59;2047387;28;46341;-63
2023/05/07 02:28:06;;;;;;;;;0.67;0.67;;;;;18.74;69.78;100881.16;2055335;28;46959;-63
2023/05/07 02:29:07;;;;;;;;;0.00;0.00;;;;;18.75;69.42;100881.06;2050512;28;46530;-64
2023/05/07 02:30:07;;;;;;;;;0.00;0.00;;;;;18.75;69.40;100875.69;2055519;28;46389;-64
2023/05/07 02:31:08;;;;;;;;;0.00;0.00;;;;;18.75;69.48;100875.69;2063411;28;46162;-63
2023/05/07 02:32:08;;;;;;;;;0.00;0.00;;;;;18.76;69.52;100872.06;2063647;28;46555;-62
2023/05/07 02:33:08;;;;;;;;;0.00;0.00;;;;;18.78;69.29;100875.53;2063837;28;46282;-63
2023/05/07 02:34:09;;;;;;;;;1.67;0.00;;;;;18.79;69.41;100873.69;2053587;28;46489;-64
2023/05/07 02:35:09;;;;;;;;;0.00;0.00;;;;;18.80;69.73;100867.38;2063680;28;46151;-63
2023/05/07 02:36:10;;;;;;;;;0.00;0.00;;;;;18.80;69.47;100868.28;2063380;28;46693;-63
2023/05/07 02:37:11;;;;;;;;;1.00;1.00;;;;;18.81;69.22;100872.69;2063743;28;46446;-64
2023/05/07 02:38:11;;;;;;;;;0.00;0.00;;;;;18.83;69.68;100872.59;2063507;28;46441;-63
2023/05/07 02:39:12;;;;;;;;;1.00;1.00;;;;;18.84;69.72;100871.66;2063490;28;46343;-63
2023/05/07 02:40:13;;;;;;;;;2.00;2.00;;;;;18.85;69.67;100877.91;2063425;28;46728;-63
2023/05/07 02:41:13;;;;;;;;;0.00;0.00;;;;;18.87;69.73;100882.25;2063522;28;46996;-63
2023/05/07 02:42:13;;;;;;;;;0.00;0.00;;;;;18.87;69.46;100879.56;2063658;28;46305;-63
2023/05/07 02:43:14;;;;;;;;;0.67;0.67;;;;;18.89;69.87;100879.47;2039374;28;46453;-64
2023/05/07 02:44:14;;;;;;;;;0.00;0.00;;;;;18.90;69.52;100887.44;2038958;28;46662;-63
2023/05/07 02:45:15;;;;;;;;;0.00;0.00;;;;;18.89;69.92;100888.41;2063355;28;46695;-64
2023/05/07 02:46:15;;;;;;;;;1.00;1.00;;;;;18.90;69.70;100887.44;2063730;28;46544;-63
2023/05/07 02:47:15;;;;;;;;;1.33;1.33;;;;;18.90;69.69;100889.28;2063407;28;46549;-63
2023/05/07 02:48:16;;;;;;;;;0.00;0.00;;;;;18.91;69.74;100886.50;2055627;28;46191;-63
2023/05/07 02:49:16;;;;;;;;;0.00;0.00;;;;;18.92;69.93;100884.66;2055452;28;46642;-63
2023/05/07 02:50:17;;;;;;;;;0.00;0.00;;;;;18.91;69.50;100886.50;2063404;28;46157;-64
2023/05/07 02:51:21;;;;;;;;;0.00;0.00;;;;;18.91;69.48;100886.50;2063437;28;46993;-61
2023/05/07 02:52:22;;;;;;;;;1.00;1.00;;;;;18.91;69.43;100886.50;2063704;28;45864;-62
2023/05/07 02:53:22;;;;;;;;;0.00;0.00;;;;;18.91;69.29;100891.88;2063623;28;46820;-63
2023/05/07 02:54:22;;;;;;;;;1.00;1.00;;;;;18.90;69.52;100887.44;2063220;28;46466;-63
2023/05/07 02:55:23;;;;;;;;;0.00;0.00;;;;;18.90;69.43;100881.19;2063451;28;46820;-63
2023/05/07 02:56:25;;;;;;;;;0.00;0.00;;;;;18.89;69.70;100880.34;2055588;28;46636;-65
2023/05/07 02:57:26;;;;;;;;;1.00;1.00;;;;;18.90;69.79;100881.19;2054158;28;46347;-63
2023/05/07 02:58:26;;;;;;;;;16.33;15.67;;;;;18.90;69.52;100886.56;2055707;28;45947;-63
2023/05/07 02:59:26;;;;;;;;;14.00;14.00;;;;;18.90;69.46;100890.13;2055312;28;46230;-64
2023/05/07 03:00:27;;;;;;;;;25.00;22.00;;;;;18.91;69.96;100881.13;2062938;28;46847;-61
2023/05/07 03:01:27;;;;;;;;;30.50;27.50;;;;;18.92;69.76;100890.91;2054958;28;45940;-64
2023/05/07 03:02:27;;;;;;;;;12.33;11.00;;;;;18.93;69.48;100887.31;2055574;28;46807;-63
2023/05/07 03:03:28;;;;;;;;;24.25;21.50;;;;;18.93;69.95;100889.09;2063180;28;45450;-63
2023/05/07 03:04:28;;;;;;;;;10.67;8.67;;;;;18.92;69.90;100888.22;2063563;28;46317;-61
2023/05/07 03:05:28;;;;;;;;;5.33;4.67;;;;;18.91;69.82;100889.19;2064306;28;46207;-65
2023/05/07 03:06:29;;;;;;;;;10.00;10.00;;;;;18.89;69.83;100883.03;2072454;28;46129;-63
2023/05/07 03:07:29;;;;;;;;;13.00;13.00;;;;;18.88;69.97;100886.66;2072512;28;46295;-64
2023/05/07 03:08:29;;;;;;;;;7.00;7.00;;;;;18.88;69.67;100883.09;2072315;28;46826;-64
2023/05/07 03:09:30;;;;;;;;;18.25;18.25;;;;;18.87;69.59;100882.25;2072690;28;45466;-63
2023/05/07 03:10:30;;;;;;;;;14.50;13.25;;;;;18.88;69.83;100875.03;2072098;28;46445;-63
2023/05/07 03:11:31;;;;;;;;;24.75;22.75;;;;;18.88;69.76;100883.97;2072129;28;46443;-63
2023/05/07 03:12:31;;;;;;;;;16.50;16.25;;;;;18.87;70.00;100890.31;2080160;28;46411;-62
2023/05/07 03:13:31;;;;;;;;;33.25;30.75;;;;;18.89;70.07;100888.41;2064370;28;45656;-62
2023/05/07 03:14:31;;;;;;;;;26.25;24.75;;;;;18.89;69.96;100885.72;2071791;28;46294;-63
2023/05/07 03:15:32;;;;;;;;;17.75;15.50;;;;;18.90;69.71;100891.97;2071079;28;46412;-61
2023/05/07 03:16:32;;;;;;;;;30.75;25.75;;;;;18.90;69.84;100889.28;2071006;28;46332;-63
2023/05/07 03:17:33;;;;;;;;;14.00;14.00;;;;;18.90;69.92;100884.75;2071341;28;46369;-65
2023/05/07 03:18:33;;;;;;;;;16.25;13.00;;;;;18.90;70.25;100886.56;2063494;28;46700;-61
2023/05/07 03:19:33;;;;;;;;;12.67;12.00;;;;;18.90;70.06;100876.69;2063344;28;46103;-62
2023/05/07 03:20:34;;;;;;;;;7.67;7.67;;;;;18.91;70.15;100883.81;2071130;28;46401;-63
2023/05/07 03:21:34;;;;;;;;;7.67;7.67;;;;;18.90;70.03;100886.56;2071171;28;46366;-62
2023/05/07 03:22:35;;;;;;;;;2.00;2.00;;;;;18.89;70.48;100884.84;2071489;28;45774;-64
2023/05/07 03:23:35;;;;;;;;;3.00;2.00;;;;;18.87;70.11;100876.00;2071800;28;46463;-63
2023/05/07 03:24:35;;;;;;;;;1.00;1.00;;;;;18.86;69.94;100880.50;2071518;28;45709;-63
2023/05/07 03:25:36;;;;;;;;;0.33;0.33;;;;;18.83;69.75;100882.50;2071808;28;46156;-63
2023/05/07 03:26:36;;;;;;;;;2.00;2.00;;;;;18.81;69.96;100882.59;2063220;28;46127;-63
2023/05/07 03:27:37;;;;;;;;;2.00;2.00;;;;;18.80;69.92;100880.81;2062512;28;46094;-63
2023/05/07 03:28:37;;;;;;;;;1.33;1.33;;;;;18.77;69.99;100881.00;2063256;28;46335;-63
2023/05/07 03:29:37;;;;;;;;;1.67;1.67;;;;;18.75;70.09;100878.38;2039548;28;46645;-63
2023/05/07 03:30:38;;;;;;;;;1.67;1.33;;;;;18.73;70.10;100874.91;2054601;28;46304;-63
2023/05/07 03:31:38;;;;;;;;;2.00;1.00;;;;;18.70;70.13;100876.91;2063517;28;46188;-64
2023/05/07 03:32:38;;;;;;;;;2.00;2.00;;;;;18.69;69.89;100875.16;2063032;28;46582;-64
2023/05/07 03:33:51;;;;;;;;;2.00;2.00;;;;;18.66;70.44;100881.53;2063097;28;46834;-64
2023/05/07 03:34:51;;;;;;;;;3.00;2.75;;;;;18.64;70.35;100878.06;2063332;28;46605;-62
2023/05/07 03:35:51;;;;;;;;;3.00;2.00;;;;;18.65;70.78;100877.13;2063065;28;46212;-61
2023/05/07 03:36:52;;;;;;;;;3.00;3.00;;;;;18.65;70.66;100877.13;2062748;28;46306;-62
2023/05/07 03:37:52;;;;;;;;;4.00;4.00;;;;;18.65;70.61;100874.44;2063594;28;46574;-64
2023/05/07 03:38:52;;;;;;;;;5.00;4.67;;;;;18.66;70.98;100878.00;2063429;28;46460;-64
2023/05/07 03:39:52;;;;;;;;;4.00;4.00;;;;;18.64;70.99;100870.00;2063102;28;46710;-63
2023/05/07 03:40:53;;;;;;;;;3.33;2.67;;;;;18.64;70.82;100872.69;2046143;28;45850;-63
2023/05/07 03:41:53;;;;;;;;;3.33;3.33;;;;;18.64;70.66;100883.44;2046779;28;46714;-63
2023/05/07 03:42:54;;;;;;;;;3.00;3.00;;;;;18.62;71.12;100879.94;2063051;28;46327;-64
2023/05/07 03:43:54;;;;;;;;;6.00;6.00;;;;;18.62;70.86;100882.63;2063212;28;46622;-63
2023/05/07 03:44:54;;;;;;;;;2.00;2.00;;;;;18.62;71.30;100884.44;2063132;28;46265;-63
2023/05/07 03:45:55;;;;;;;;;3.67;3.67;;;;;18.63;71.20;100886.19;2063104;28;46692;-63
2023/05/07 03:46:55;;;;;;;;;5.00;4.33;;;;;18.64;71.13;100891.53;2062705;28;46293;-63
2023/05/07 03:47:55;;;;;;;;;5.67;3.00;;;;;18.65;71.05;100884.31;2063373;28;46302;-63
2023/05/07 03:48:56;;;;;;;;;3.00;3.00;;;;;18.66;71.33;100881.53;2063108;28;46446;-62
2023/05/07 03:49:56;;;;;;;;;5.00;5.00;;;;;18.67;71.54;100887.78;2066164;28;46432;-63
2023/05/07 03:50:57;;;;;;;;;4.00;4.00;;;;;18.68;71.52;100887.75;2062926;28;46691;-63
2023/05/07 03:51:58;;;;;;;;;5.75;5.75;;;;;18.69;71.02;100893.97;2062978;28;46444;-64
2023/05/07 03:52:58;;;;;;;;;3.33;3.33;;;;;18.71;71.22;100894.78;2064120;28;46545;-63
2023/05/07 03:53:58;;;;;;;;;5.00;5.00;;;;;18.70;71.08;100891.22;2063297;28;46379;-63
2023/05/07 03:54:59;;;;;;;;;3.33;2.00;;;;;18.71;71.30;100892.94;2059439;28;46254;-63
2023/05/07 03:55:59;;;;;;;;;3.33;3.33;;;;;18.70;71.19;100893.91;2063137;28;46498;-62
2023/05/07 03:56:59;;;;;;;;;5.00;5.00;;;;;18.70;71.19;100895.72;2070825;28;46302;-63
2023/05/07 03:58:00;;;;;;;;;3.67;3.67;;;;;18.69;71.30;100900.22;2071306;28;46587;-63
2023/05/07 03:59:01;;;;;;;;;3.67;3.67;;;;;18.69;71.30;100899.38;2071368;28;46856;-63
2023/05/07 04:00:03;;;;;;;;;3.25;2.75;;;;;18.67;71.61;100898.53;2070700;28;46377;-61
2023/05/07 04:01:03;;;;;;;;;2.00;2.00;;;;;18.67;70.73;100902.09;2070999;28;46814;-63
2023/05/07 04:02:04;;;;;;;;;3.00;3.00;;;;;18.66;70.79;100897.69;2071389;28;45845;-63
2023/05/07 04:03:04;;;;;;;;;4.67;4.33;;;;;18.64;70.96;100904.97;2072751;28;45824;-62
2023/05/07 04:04:05;;;;;;;;;3.00;3.00;;;;;18.65;70.98;100908.50;2072541;28;46383;-64
2023/05/07 04:05:05;;;;;;;;;3.00;2.67;;;;;18.64;70.87;100909.47;2072025;28;46549;-64
2023/05/07 04:06:06;;;;;;;;;5.67;3.00;;;;;18.61;71.25;100913.16;2071926;28;46486;-64
2023/05/07 04:07:07;;;;;;;;;3.00;2.00;;;;;18.60;71.07;100910.56;2072377;28;46539;-63
2023/05/07 04:08:07;;;;;;;;;2.25;2.25;;;;;18.59;71.11;100909.69;2071532;28;45820;-64
2023/05/07 04:09:08;;;;;;;;;2.00;2.00;;;;;18.59;71.15;100907.00;2072311;28;46860;-64
2023/05/07 04:10:08;;;;;;;;;2.33;2.00;;;;;18.59;71.20;100904.31;2071516;28;46531;-64
2023/05/07 04:11:09;;;;;;;;;1.00;1.00;;;;;18.62;70.75;100905.97;2054467;28;46368;-63
2023/05/07 04:12:09;;;;;;;;;2.00;2.00;;;;;18.61;70.51;100899.72;2054599;28;46285;-64
2023/05/07 04:13:09;;;;;;;;;1.00;1.00;;;;;18.62;70.86;100904.13;2072096;28;45988;-63
2023/05/07 04:14:10;;;;;;;;;4.00;3.00;;;;;18.62;70.58;100903.28;2071417;28;46658;-63
2023/05/07 04:15:10;;;;;;;;;2.00;2.00;;;;;18.62;70.85;100905.97;2071808;28;46504;-64
2023/05/07 04:16:10;;;;;;;;;2.67;2.00;;;;;18.62;70.50;100900.59;2071322;28;46270;-65
2023/05/07 04:17:11;;;;;;;;;1.00;1.00;;;;;18.63;70.45;100905.88;2072181;28;45867;-63
2023/05/07 04:18:11;;;;;;;;;0.00;0.00;;;;;18.63;70.57;100905.00;2072102;28;46375;-63
2023/05/07 04:19:11;;;;;;;;;1.00;1.00;;;;;18.64;70.45;100901.41;2072064;28;46585;-63
2023/05/07 04:20:16;;;;;;;;;0.00;0.00;;;;;18.64;70.78;100901.41;2070395;28;45568;-63
2023/05/07 04:21:18;;;;;;;;;2.25;2.25;;;;;18.64;70.70;100901.41;2071366;28;46429;-64
2023/05/07 04:22:19;;;;;;;;;1.25;1.25;;;;;18.64;70.67;100890.66;2072174;28;46917;-62
2023/05/07 04:23:19;;;;;;;;;1.00;1.00;;;;;18.64;70.87;100896.88;2072270;28;46267;-64
2023/05/07 04:24:20;;;;;;;;;2.67;2.00;;;;;18.64;71.04;100894.22;2072059;28;45623;-65
2023/05/07 04:25:20;;;;;;;;;2.00;2.00;;;;;18.67;71.06;100898.53;2072002;28;46539;-62
2023/05/07 04:26:21;;;;;;;;;0.67;0.67;;;;;18.66;70.96;100900.38;2072217;28;46403;-63
2023/05/07 04:27:21;;;;;;;;;0.00;0.00;;;;;18.65;70.79;100900.44;2072254;28;47028;-63
2023/05/07 04:28:21;;;;;;;;;0.33;0.33;;;;;18.64;71.08;100901.41;2071775;28;46509;-63
2023/05/07 04:29:22;;;;;;;;;2.00;2.00;;;;;18.61;71.14;100905.09;2080109;28;46737;-63
2023/05/07 04:30:22;;;;;;;;;1.67;1.67;;;;;18.59;71.12;100906.13;2079471;28;46291;-64
2023/05/07 04:31:23;;;;;;;;;2.00;1.00;;;;;18.56;71.74;100906.28;2072046;28;47108;-64
2023/05/07 04:32:24;;;;;;;;;2.00;2.00;;;;;18.54;71.31;100912.59;2072024;28;46612;-62
2023/05/07 04:33:25;;;;;;;;;2.50;2.50;;;;;18.54;71.48;100911.72;2072011;28;46308;-63
2023/05/07 04:34:25;;;;;;;;;1.00;1.00;;;;;18.56;71.53;100914.34;2071863;28;46397;-64
2023/05/07 04:35:26;;;;;;;;;4.67;2.33;;;;;18.58;71.69;100909.75;2071675;28;46475;-63
2023/05/07 04:36:27;;;;;;;;;1.00;1.00;;;;;18.57;71.88;100906.22;2072321;28;46759;-62
2023/05/07 04:37:27;;;;;;;;;2.00;2.00;;;;;18.56;71.76;100917.03;2074078;28;46281;-63
2023/05/07 04:38:31;;;;;;;;;0.00;0.00;;;;;18.55;71.59;100905.44;2073417;28;46131;-64
2023/05/07 04:39:32;;;;;;;;;1.75;1.75;;;;;18.53;71.80;100916.22;2071182;28;46877;-63
2023/05/07 04:40:32;;;;;;;;;0.00;0.00;;;;;18.51;71.49;100915.44;2071611;28;47136;-64
2023/05/07 04:41:33;;;;;;;;;1.33;1.33;;;;;18.50;72.08;100910.16;2071889;28;46602;-63
2023/05/07 04:42:33;;;;;;;;;2.00;1.00;;;;;18.48;71.56;100912.06;2072118;28;46472;-64
2023/05/07 04:43:34;;;;;;;;;0.00;0.00;;;;;18.47;71.75;100923.75;2071743;28;46309;-63